createdAt,value
2022-08-31T00:02:39.069Z,99.90
2022-08-31T00:05:25.044Z,99.90
2022-08-31T00:08:10.787Z,99.90
2022-08-31T00:10:56.641Z,99.90
2022-08-31T00:13:44.263Z,99.90
2022-08-31T00:16:33.386Z,99.90
2022-08-31T00:19:21.016Z,99.90
2022-08-31T00:22:06.950Z,99.90
2022-08-31T00:24:52.828Z,99.90
2022-08-31T00:27:38.556Z,99.90
2022-08-31T00:30:24.963Z,99.90
2022-08-31T00:33:11.812Z,99.90
2022-08-31T00:35:58.193Z,99.90
2022-08-31T00:38:44.348Z,99.90
2022-08-31T00:41:31.652Z,99.90
2022-08-31T00:44:17.946Z,99.90
2022-08-31T00:47:03.804Z,99.90
2022-08-31T00:49:51.617Z,99.90
2022-08-31T00:52:41.268Z,99.90
2022-08-31T00:55:36.645Z,99.90
2022-08-31T00:58:23.044Z,99.90
2022-08-31T01:01:10.177Z,99.90
2022-08-31T01:03:57.107Z,99.90
2022-08-31T01:06:43.483Z,99.90
2022-08-31T01:09:36.217Z,99.90
2022-08-31T01:12:22.320Z,99.90
2022-08-31T01:15:09.250Z,99.90
2022-08-31T01:17:58.212Z,99.90
2022-08-31T01:21:08.587Z,99.90
2022-08-31T01:23:58.475Z,99.90
2022-08-31T01:26:44.794Z,99.90
2022-08-31T01:29:42.241Z,99.90
2022-08-31T01:32:27.945Z,99.90
2022-08-31T01:35:13.569Z,99.90
2022-08-31T01:38:00.334Z,99.90
2022-08-31T01:40:52.287Z,99.90
2022-08-31T01:43:38.524Z,99.90
2022-08-31T01:46:25.247Z,99.90
2022-08-31T01:49:13.395Z,99.90
2022-08-31T01:51:59.495Z,99.90
2022-08-31T01:54:45.331Z,99.90
2022-08-31T01:57:33.817Z,99.90
2022-08-31T02:00:52.687Z,99.90
2022-08-31T02:03:39.179Z,99.90
2022-08-31T02:06:25.743Z,99.90
2022-08-31T02:09:11.847Z,99.90
2022-08-31T02:11:57.937Z,99.90
2022-08-31T02:14:44.137Z,99.90
2022-08-31T02:17:30.042Z,99.90
2022-08-31T02:20:16.733Z,99.90
2022-08-31T02:23:03.538Z,99.90
2022-08-31T02:25:49.545Z,99.90
2022-08-31T02:28:36.888Z,99.90
2022-08-31T02:31:23.154Z,99.90
2022-08-31T02:34:17.250Z,99.90
2022-08-31T02:37:03.157Z,99.90
2022-08-31T02:39:50.487Z,99.90
2022-08-31T02:42:52.213Z,99.90
2022-08-31T02:45:41.253Z,99.90
2022-08-31T02:48:32.517Z,99.90
2022-08-31T02:51:19.484Z,99.90
2022-08-31T02:54:06.896Z,99.90
2022-08-31T02:56:52.712Z,99.90
2022-08-31T02:59:38.607Z,99.90
2022-08-31T03:02:32.022Z,99.90
2022-08-31T03:05:20.884Z,99.90
2022-08-31T03:08:06.840Z,99.90
2022-08-31T03:10:52.608Z,99.90
2022-08-31T03:13:39.500Z,99.90
2022-08-31T03:16:25.337Z,99.90
2022-08-31T03:19:11.116Z,99.90
2022-08-31T03:21:56.980Z,99.90
2022-08-31T03:24:44.162Z,99.90
2022-08-31T03:27:30.376Z,99.90
2022-08-31T03:30:19.547Z,99.90
2022-08-31T03:33:15.559Z,99.90
2022-08-31T03:36:03.917Z,99.90
2022-08-31T03:38:49.658Z,99.90
2022-08-31T03:41:35.378Z,99.90
2022-08-31T03:44:23.930Z,99.90
2022-08-31T03:47:10.787Z,99.90
2022-08-31T03:50:00.759Z,99.90
2022-08-31T03:53:00.012Z,99.90
2022-08-31T03:55:45.997Z,99.90
2022-08-31T03:58:32.700Z,99.90
2022-08-31T04:01:19.777Z,99.90
2022-08-31T04:04:28.862Z,99.90
2022-08-31T04:07:42.506Z,99.90
2022-08-31T04:10:50.039Z,99.90
2022-08-31T04:13:54.374Z,99.90
2022-08-31T04:16:41.557Z,99.90
2022-08-31T04:19:45.990Z,99.90
2022-08-31T04:22:47.897Z,99.90
2022-08-31T04:25:52.146Z,99.90
2022-08-31T04:28:38.040Z,99.90
2022-08-31T04:31:26.296Z,99.90
2022-08-31T04:34:12.357Z,99.90
2022-08-31T04:36:58.821Z,99.90
2022-08-31T04:39:50.882Z,99.90
2022-08-31T04:42:39.009Z,99.90
2022-08-31T04:45:24.851Z,99.90
2022-08-31T04:48:11.239Z,99.90
2022-08-31T04:51:09.179Z,99.90
2022-08-31T04:53:55.652Z,99.90
2022-08-31T04:56:45.181Z,99.90
2022-08-31T04:59:35.804Z,99.90
2022-08-31T05:02:47.798Z,99.90
2022-08-31T05:05:40.179Z,99.90
2022-08-31T05:08:26.194Z,99.90
2022-08-31T05:11:15.087Z,99.90
2022-08-31T05:14:02.968Z,99.90
2022-08-31T05:16:49.971Z,99.90
2022-08-31T05:19:40.906Z,99.90
2022-08-31T05:22:28.930Z,99.90
2022-08-31T05:25:16.751Z,99.90
2022-08-31T05:28:03.350Z,99.90
2022-08-31T05:30:49.476Z,99.90
2022-08-31T05:34:01.590Z,99.90
2022-08-31T05:36:57.815Z,99.90
2022-08-31T05:39:47.415Z,99.90
2022-08-31T05:42:33.404Z,99.90
2022-08-31T05:45:19.311Z,99.90
2022-08-31T05:48:06.501Z,99.90
2022-08-31T05:50:55.188Z,99.90
2022-08-31T05:53:41.978Z,99.90
2022-08-31T05:56:28.812Z,99.90
2022-08-31T05:59:16.228Z,99.90
2022-08-31T06:02:03.467Z,99.90
2022-08-31T06:04:57.015Z,99.90
2022-08-31T06:07:42.916Z,99.90
2022-08-31T06:10:33.035Z,99.90
2022-08-31T06:13:19.210Z,99.90
2022-08-31T06:16:07.035Z,99.90
2022-08-31T06:18:55.677Z,99.90
2022-08-31T06:21:49.859Z,99.90
2022-08-31T06:24:42.563Z,99.90
2022-08-31T06:27:29.974Z,99.90
2022-08-31T06:30:19.323Z,99.90
2022-08-31T06:33:06.927Z,99.90
2022-08-31T06:36:12.194Z,99.90
2022-08-31T06:39:27.385Z,99.90
2022-08-31T06:42:25.086Z,99.90
2022-08-31T06:45:22.802Z,99.90
2022-08-31T06:48:22.597Z,99.90
2022-08-31T06:51:09.475Z,99.90
2022-08-31T06:53:55.590Z,99.90
2022-08-31T06:57:02.793Z,99.90
2022-08-31T07:00:08.404Z,99.90
2022-08-31T07:03:23.070Z,99.90
2022-08-31T07:06:25.444Z,99.90
2022-08-31T07:09:17.645Z,99.90
2022-08-31T07:12:05.361Z,99.90
2022-08-31T07:14:54.729Z,99.90
2022-08-31T07:17:42.379Z,99.90
2022-08-31T07:20:29.778Z,99.90
2022-08-31T07:23:15.634Z,99.90
2022-08-31T07:26:16.726Z,99.90
2022-08-31T07:29:06.959Z,99.90
2022-08-31T07:31:55.829Z,99.90
2022-08-31T07:34:44.155Z,99.90
2022-08-31T07:38:08.696Z,99.90
2022-08-31T07:41:14.005Z,99.90
2022-08-31T07:44:00.295Z,99.90
2022-08-31T07:46:48.253Z,99.90
2022-08-31T07:49:37.322Z,99.90
2022-08-31T07:52:33.270Z,99.90
2022-08-31T07:55:28.243Z,99.90
2022-08-31T07:58:19.084Z,99.90
2022-08-31T08:01:06.635Z,99.90
2022-08-31T08:03:53.919Z,99.90
2022-08-31T08:07:00.426Z,99.90
2022-08-31T08:10:00.812Z,99.90
2022-08-31T08:13:05.876Z,99.90
2022-08-31T08:16:16.363Z,99.90
2022-08-31T08:19:12.380Z,99.90
2022-08-31T08:21:59.893Z,99.90
2022-08-31T08:24:51.049Z,99.90
2022-08-31T08:27:56.080Z,99.90
2022-08-31T08:31:01.425Z,99.90
2022-08-31T08:33:51.992Z,99.90
2022-08-31T08:36:38.236Z,99.90
2022-08-31T08:39:25.168Z,99.80
2022-08-31T08:42:40.157Z,99.60
2022-08-31T08:45:27.226Z,99.90
2022-08-31T08:48:17.299Z,99.90
2022-08-31T08:51:10.318Z,99.90
2022-08-31T08:54:12.538Z,99.90
2022-08-31T08:57:03.497Z,99.40
2022-08-31T08:59:51.159Z,98.10
2022-08-31T09:02:46.044Z,97.70
2022-08-31T09:05:59.265Z,99.00
2022-08-31T09:09:23.174Z,99.70
2022-08-31T09:12:38.488Z,99.60
2022-08-31T09:15:45.898Z,98.90
2022-08-31T09:19:00.113Z,98.60
2022-08-31T09:21:58.890Z,99.90
2022-08-31T09:24:44.516Z,99.90
2022-08-31T09:27:57.579Z,99.90
2022-08-31T09:30:52.362Z,99.90
2022-08-31T09:33:51.098Z,99.90
2022-08-31T09:36:41.420Z,98.80
2022-08-31T09:39:32.995Z,99.10
2022-08-31T09:42:33.749Z,99.00
2022-08-31T09:45:30.135Z,97.60
2022-08-31T09:48:56.860Z,96.70
2022-08-31T09:51:43.753Z,98.40
2022-08-31T09:54:48.143Z,99.90
2022-08-31T09:58:11.204Z,99.90
2022-08-31T10:00:58.107Z,99.90
2022-08-31T10:03:47.763Z,99.90
2022-08-31T10:06:44.535Z,99.20
2022-08-31T10:09:37.678Z,98.10
2022-08-31T10:12:50.036Z,96.70
2022-08-31T10:15:52.973Z,97.40
2022-08-31T10:18:50.726Z,96.80
2022-08-31T10:21:52.397Z,96.50
2022-08-31T10:24:44.856Z,98.20
2022-08-31T10:27:38.630Z,97.70
2022-08-31T10:30:30.270Z,97.10
2022-08-31T10:33:23.836Z,97.00
2022-08-31T10:36:11.763Z,98.00
2022-08-31T10:38:57.970Z,99.70
2022-08-31T10:41:49.535Z,98.90
2022-08-31T10:44:49.900Z,95.80
2022-08-31T10:47:41.597Z,95.60
2022-08-31T10:50:39.275Z,93.40
2022-08-31T10:53:45.163Z,95.10
2022-08-31T10:56:49.782Z,97.30
2022-08-31T10:59:46.005Z,98.90
2022-08-31T11:03:10.651Z,98.80
2022-08-31T11:06:04.208Z,99.00
2022-08-31T11:08:58.666Z,99.90
2022-08-31T11:11:47.580Z,99.90
2022-08-31T11:14:45.097Z,99.90
2022-08-31T11:18:12.332Z,99.90
2022-08-31T11:21:35.326Z,99.90
2022-08-31T11:24:46.006Z,99.90
2022-08-31T11:27:44.862Z,99.90
2022-08-31T11:30:33.551Z,99.90
2022-08-31T11:33:26.287Z,99.90
2022-08-31T11:36:12.407Z,99.90
2022-08-31T11:39:01.817Z,99.90
2022-08-31T11:41:51.533Z,99.90
2022-08-31T11:44:39.317Z,99.90
2022-08-31T11:47:28.287Z,99.90
2022-08-31T11:50:23.255Z,99.90
2022-08-31T11:53:33.478Z,99.90
2022-08-31T11:56:41.901Z,99.90
2022-08-31T11:59:35.485Z,99.90
2022-08-31T12:02:21.716Z,99.90
2022-08-31T12:05:09.827Z,99.90
2022-08-31T12:07:56.064Z,99.90
2022-08-31T12:11:17.510Z,99.90
2022-08-31T12:14:14.689Z,99.90
2022-08-31T12:17:28.469Z,99.90
2022-08-31T12:21:11.839Z,99.90
2022-08-31T12:24:09.370Z,99.90
2022-08-31T12:27:18.548Z,99.90
2022-08-31T12:30:26.479Z,99.90
2022-08-31T12:33:18.023Z,99.90
2022-08-31T12:36:19.465Z,99.90
2022-08-31T12:39:23.875Z,99.90
2022-08-31T12:42:11.447Z,99.90
2022-08-31T12:44:57.347Z,99.90
2022-08-31T12:48:01.422Z,99.90
2022-08-31T12:51:06.083Z,99.90
2022-08-31T12:53:51.914Z,99.90
2022-08-31T12:57:02.049Z,99.90
2022-08-31T13:00:15.795Z,99.90
2022-08-31T13:03:23.115Z,99.90
2022-08-31T13:06:13.662Z,99.90
2022-08-31T13:09:00.523Z,99.90
2022-08-31T13:11:52.161Z,99.90
2022-08-31T13:14:43.601Z,99.90
2022-08-31T13:17:36.550Z,99.90
2022-08-31T13:20:29.695Z,99.90
2022-08-31T13:23:28.678Z,99.90
2022-08-31T13:26:25.937Z,99.90
2022-08-31T13:29:15.814Z,99.90
2022-08-31T13:32:01.957Z,99.90
2022-08-31T13:34:49.298Z,99.90
2022-08-31T13:37:43.084Z,99.90
2022-08-31T13:40:29.543Z,99.90
2022-08-31T13:43:27.513Z,99.90
2022-08-31T13:46:13.312Z,99.90
2022-08-31T13:49:03.435Z,99.90
2022-08-31T13:51:49.487Z,99.90
2022-08-31T13:54:36.796Z,99.90
2022-08-31T13:57:35.006Z,99.90
2022-08-31T14:00:33.311Z,99.90
2022-08-31T14:03:51.542Z,99.90
2022-08-31T14:06:39.258Z,99.90
2022-08-31T14:09:25.165Z,99.90
2022-08-31T14:12:37.248Z,99.90
2022-08-31T14:15:41.258Z,99.90
2022-08-31T14:18:43.151Z,99.90
2022-08-31T14:21:33.582Z,99.90
2022-08-31T14:24:20.802Z,99.90
2022-08-31T14:27:06.875Z,99.90
2022-08-31T14:29:53.145Z,99.90
2022-08-31T14:32:38.971Z,99.90
2022-08-31T14:35:26.433Z,99.90
2022-08-31T14:38:15.651Z,99.90
2022-08-31T14:41:01.650Z,99.90
2022-08-31T14:43:48.331Z,99.90
2022-08-31T14:46:37.422Z,99.90
2022-08-31T14:49:23.711Z,99.90
2022-08-31T14:52:11.114Z,99.90
2022-08-31T14:54:59.444Z,99.90
2022-08-31T14:57:47.233Z,99.90
2022-08-31T15:00:36.742Z,99.90
2022-08-31T15:03:24.570Z,99.90
2022-08-31T15:06:10.320Z,99.90
2022-08-31T15:08:56.286Z,99.90
2022-08-31T15:11:43.732Z,99.90
